sensor_id;sensor_type;location;lat;lon;timestamp;temperature;humidity
16417;DHT22;8317;52.186;5.688;2023-09-12T00:00:42;20.30;99.90
16417;DHT22;8317;52.186;5.688;2023-09-12T00:03:09;20.40;99.90
16417;DHT22;8317;52.186;5.688;2023-09-12T00:05:36;20.40;99.90
16417;DHT22;8317;52.186;5.688;2023-09-12T00:08:03;20.50;99.90
16417;DHT22;8317;52.186;5.688;2023-09-12T00:10:30;20.50;99.90
16417;DHT22;8317;52.186;5.688;2023-09-12T00:12:58;20.50;99.90
16417;DHT22;8317;52.186;5.688;2023-09-12T00:15:29;20.50;99.90
16417;DHT22;8317;52.186;5.688;2023-09-12T00:17:56;20.40;99.90
16417;DHT22;8317;52.186;5.688;2023-09-12T00:20:23;20.50;99.90
16417;DHT22;8317;52.186;5.688;2023-09-12T00:22:50;20.40;99.90
16417;DHT22;8317;52.186;5.688;2023-09-12T00:25:18;20.40;99.90
16417;DHT22;8317;52.186;5.688;2023-09-12T00:27:45;20.40;99.90
16417;DHT22;8317;52.186;5.688;2023-09-12T00:30:14;20.40;99.90
16417;DHT22;8317;52.186;5.688;2023-09-12T00:32:42;20.40;99.90
16417;DHT22;8317;52.186;5.688;2023-09-12T00:35:09;20.40;99.90
16417;DHT22;8317;52.186;5.688;2023-09-12T00:37:36;20.40;99.90
16417;DHT22;8317;52.186;5.688;2023-09-12T00:40:04;20.40;99.90
16417;DHT22;8317;52.186;5.688;2023-09-12T00:42:31;20.30;99.90
16417;DHT22;8317;52.186;5.688;2023-09-12T00:44:58;20.20;99.90
16417;DHT22;8317;52.186;5.688;2023-09-12T00:47:25;20.20;99.90
16417;DHT22;8317;52.186;5.688;2023-09-12T00:49:56;20.10;99.90
16417;DHT22;8317;52.186;5.688;2023-09-12T00:52:24;20.10;99.90
16417;DHT22;8317;52.186;5.688;2023-09-12T00:54:53;20.10;99.90
16417;DHT22;8317;52.186;5.688;2023-09-12T00:57:21;20.10;99.90
16417;DHT22;8317;52.186;5.688;2023-09-12T00:59:49;20.00;99.90
16417;DHT22;8317;52.186;5.688;2023-09-12T01:02:16;20.00;99.90
16417;DHT22;8317;52.186;5.688;2023-09-12T01:04:43;19.90;99.90
16417;DHT22;8317;52.186;5.688;2023-09-12T01:07:12;19.90;99.90
16417;DHT22;8317;52.186;5.688;2023-09-12T01:09:40;19.90;99.90
16417;DHT22;8317;52.186;5.688;2023-09-12T01:12:07;19.90;99.90
16417;DHT22;8317;52.186;5.688;2023-09-12T01:14:38;19.90;99.90
16417;DHT22;8317;52.186;5.688;2023-09-12T01:17:05;19.90;99.90
16417;DHT22;8317;52.186;5.688;2023-09-12T01:19:33;19.90;99.90
16417;DHT22;8317;52.186;5.688;2023-09-12T01:22:40;19.90;99.90
16417;DHT22;8317;52.186;5.688;2023-09-12T01:25:29;19.90;99.90
16417;DHT22;8317;52.186;5.688;2023-09-12T01:28:02;19.80;99.90
16417;DHT22;8317;52.186;5.688;2023-09-12T01:30:32;19.80;99.90
16417;DHT22;8317;52.186;5.688;2023-09-12T01:33:01;19.80;99.90
16417;DHT22;8317;52.186;5.688;2023-09-12T01:35:28;19.70;99.90
16417;DHT22;8317;52.186;5.688;2023-09-12T01:37:55;19.70;99.90
16417;DHT22;8317;52.186;5.688;2023-09-12T01:40:30;19.80;99.90
16417;DHT22;8317;52.186;5.688;2023-09-12T01:43:00;19.80;99.90
16417;DHT22;8317;52.186;5.688;2023-09-12T01:45:29;19.80;99.90
16417;DHT22;8317;52.186;5.688;2023-09-12T01:47:56;19.70;99.90
16417;DHT22;8317;52.186;5.688;2023-09-12T01:50:25;19.70;99.90
16417;DHT22;8317;52.186;5.688;2023-09-12T01:52:53;19.70;99.90
16417;DHT22;8317;52.186;5.688;2023-09-12T01:55:22;19.60;99.90
16417;DHT22;8317;52.186;5.688;2023-09-12T01:57:49;19.60;99.90
16417;DHT22;8317;52.186;5.688;2023-09-12T02:00:19;19.60;99.90
16417;DHT22;8317;52.186;5.688;2023-09-12T02:02:46;19.50;99.90
16417;DHT22;8317;52.186;5.688;2023-09-12T02:05:16;19.40;99.90
16417;DHT22;8317;52.186;5.688;2023-09-12T02:07:45;19.40;99.90
16417;DHT22;8317;52.186;5.688;2023-09-12T02:10:12;19.40;99.90
16417;DHT22;8317;52.186;5.688;2023-09-12T02:12:39;19.40;99.90
16417;DHT22;8317;52.186;5.688;2023-09-12T02:15:07;19.40;99.90
16417;DHT22;8317;52.186;5.688;2023-09-12T02:17:35;19.40;99.90
16417;DHT22;8317;52.186;5.688;2023-09-12T02:20:05;19.40;99.90
16417;DHT22;8317;52.186;5.688;2023-09-12T02:22:32;19.40;99.90
16417;DHT22;8317;52.186;5.688;2023-09-12T02:24:59;19.40;99.90
16417;DHT22;8317;52.186;5.688;2023-09-12T02:27:26;19.40;99.90
16417;DHT22;8317;52.186;5.688;2023-09-12T02:29:53;19.30;99.90
16417;DHT22;8317;52.186;5.688;2023-09-12T02:32:20;19.40;99.90
16417;DHT22;8317;52.186;5.688;2023-09-12T02:34:49;19.40;99.90
16417;DHT22;8317;52.186;5.688;2023-09-12T02:37:15;19.30;99.90
16417;DHT22;8317;52.186;5.688;2023-09-12T02:39:42;19.20;99.90
16417;DHT22;8317;52.186;5.688;2023-09-12T02:42:09;19.20;99.90
16417;DHT22;8317;52.186;5.688;2023-09-12T02:44:36;19.10;99.90
16417;DHT22;8317;52.186;5.688;2023-09-12T02:47:04;19.20;99.90
16417;DHT22;8317;52.186;5.688;2023-09-12T02:49:31;19.10;99.90
16417;DHT22;8317;52.186;5.688;2023-09-12T02:51:59;19.10;99.90
16417;DHT22;8317;52.186;5.688;2023-09-12T02:54:26;19.10;99.90
16417;DHT22;8317;52.186;5.688;2023-09-12T02:56:53;19.10;99.90
16417;DHT22;8317;52.186;5.688;2023-09-12T02:59:19;19.10;99.90
16417;DHT22;8317;52.186;5.688;2023-09-12T03:01:46;19.00;99.90
16417;DHT22;8317;52.186;5.688;2023-09-12T03:04:13;19.00;99.90
16417;DHT22;8317;52.186;5.688;2023-09-12T03:06:40;19.00;99.90
16417;DHT22;8317;52.186;5.688;2023-09-12T03:09:08;18.90;99.90
16417;DHT22;8317;52.186;5.688;2023-09-12T03:11:36;18.90;99.90
16417;DHT22;8317;52.186;5.688;2023-09-12T03:14:03;18.90;99.90
16417;DHT22;8317;52.186;5.688;2023-09-12T03:16:30;18.90;99.90
16417;DHT22;8317;52.186;5.688;2023-09-12T03:18:58;18.90;99.90
16417;DHT22;8317;52.186;5.688;2023-09-12T03:21:26;18.90;99.90
16417;DHT22;8317;52.186;5.688;2023-09-12T03:23:53;18.90;99.90
16417;DHT22;8317;52.186;5.688;2023-09-12T03:26:21;18.90;99.90
16417;DHT22;8317;52.186;5.688;2023-09-12T03:28:49;18.90;99.90
16417;DHT22;8317;52.186;5.688;2023-09-12T03:31:16;18.90;99.90
16417;DHT22;8317;52.186;5.688;2023-09-12T03:33:43;18.80;99.90
16417;DHT22;8317;52.186;5.688;2023-09-12T03:36:15;18.80;99.90
16417;DHT22;8317;52.186;5.688;2023-09-12T03:38:42;18.80;99.90
16417;DHT22;8317;52.186;5.688;2023-09-12T03:41:09;18.80;99.90
16417;DHT22;8317;52.186;5.688;2023-09-12T03:43:37;18.80;99.90
16417;DHT22;8317;52.186;5.688;2023-09-12T03:46:04;18.80;99.90
16417;DHT22;8317;52.186;5.688;2023-09-12T03:48:31;18.80;99.90
16417;DHT22;8317;52.186;5.688;2023-09-12T03:50:58;18.80;99.90
16417;DHT22;8317;52.186;5.688;2023-09-12T03:53:25;18.80;99.90
16417;DHT22;8317;52.186;5.688;2023-09-12T03:55:53;18.70;99.90
16417;DHT22;8317;52.186;5.688;2023-09-12T03:58:20;18.70;99.90
16417;DHT22;8317;52.186;5.688;2023-09-12T04:00:49;18.70;99.90
16417;DHT22;8317;52.186;5.688;2023-09-12T04:03:16;18.70;99.90
16417;DHT22;8317;52.186;5.688;2023-09-12T04:05:42;18.70;99.90
16417;DHT22;8317;52.186;5.688;2023-09-12T04:08:09;18.70;99.90
16417;DHT22;8317;52.186;5.688;2023-09-12T04:10:36;18.70;99.90
16417;DHT22;8317;52.186;5.688;2023-09-12T04:13:03;18.60;99.90
16417;DHT22;8317;52.186;5.688;2023-09-12T04:15:30;18.60;99.90
16417;DHT22;8317;52.186;5.688;2023-09-12T04:17:58;18.60;99.90
16417;DHT22;8317;52.186;5.688;2023-09-12T04:20:25;18.60;99.90
16417;DHT22;8317;52.186;5.688;2023-09-12T04:22:52;18.60;99.90
16417;DHT22;8317;52.186;5.688;2023-09-12T04:25:19;18.60;99.90
16417;DHT22;8317;52.186;5.688;2023-09-12T04:27:46;18.60;99.90
16417;DHT22;8317;52.186;5.688;2023-09-12T04:30:13;18.60;99.90
16417;DHT22;8317;52.186;5.688;2023-09-12T04:32:40;18.60;99.90
16417;DHT22;8317;52.186;5.688;2023-09-12T04:35:08;18.60;99.90
16417;DHT22;8317;52.186;5.688;2023-09-12T04:37:36;18.60;99.90
16417;DHT22;8317;52.186;5.688;2023-09-12T04:40:03;18.60;99.90
16417;DHT22;8317;52.186;5.688;2023-09-12T04:42:32;18.60;99.90
16417;DHT22;8317;52.186;5.688;2023-09-12T04:44:59;18.60;99.90
16417;DHT22;8317;52.186;5.688;2023-09-12T04:47:26;18.60;99.90
16417;DHT22;8317;52.186;5.688;2023-09-12T04:49:53;18.50;99.90
16417;DHT22;8317;52.186;5.688;2023-09-12T04:52:21;18.60;99.90
16417;DHT22;8317;52.186;5.688;2023-09-12T04:54:48;18.50;99.90
16417;DHT22;8317;52.186;5.688;2023-09-12T04:57:15;18.50;99.90
16417;DHT22;8317;52.186;5.688;2023-09-12T04:59:42;18.50;99.90
16417;DHT22;8317;52.186;5.688;2023-09-12T05:02:09;18.50;99.90
16417;DHT22;8317;52.186;5.688;2023-09-12T05:04:36;18.50;99.90
16417;DHT22;8317;52.186;5.688;2023-09-12T05:07:03;18.50;99.90
16417;DHT22;8317;52.186;5.688;2023-09-12T05:09:31;18.40;99.90
16417;DHT22;8317;52.186;5.688;2023-09-12T05:11:58;18.40;99.90
16417;DHT22;8317;52.186;5.688;2023-09-12T05:14:25;18.40;99.90
16417;DHT22;8317;52.186;5.688;2023-09-12T05:16:52;18.30;99.90
16417;DHT22;8317;52.186;5.688;2023-09-12T05:19:19;18.30;99.90
16417;DHT22;8317;52.186;5.688;2023-09-12T05:21:46;18.30;99.90
16417;DHT22;8317;52.186;5.688;2023-09-12T05:24:13;18.30;99.90
16417;DHT22;8317;52.186;5.688;2023-09-12T05:26:41;18.20;99.90
16417;DHT22;8317;52.186;5.688;2023-09-12T05:29:08;18.30;99.90
16417;DHT22;8317;52.186;5.688;2023-09-12T05:31:35;18.20;99.90
16417;DHT22;8317;52.186;5.688;2023-09-12T05:34:02;18.20;99.90
16417;DHT22;8317;52.186;5.688;2023-09-12T05:36:29;18.20;99.90
16417;DHT22;8317;52.186;5.688;2023-09-12T05:38:56;18.30;99.90
16417;DHT22;8317;52.186;5.688;2023-09-12T05:41:22;18.30;99.90
16417;DHT22;8317;52.186;5.688;2023-09-12T05:43:51;18.30;99.90
16417;DHT22;8317;52.186;5.688;2023-09-12T05:46:18;18.40;99.90
16417;DHT22;8317;52.186;5.688;2023-09-12T05:48:45;18.40;99.90
16417;DHT22;8317;52.186;5.688;2023-09-12T05:51:12;18.30;99.90
16417;DHT22;8317;52.186;5.688;2023-09-12T05:53:39;18.30;99.90
16417;DHT22;8317;52.186;5.688;2023-09-12T05:56:06;18.30;99.90
16417;DHT22;8317;52.186;5.688;2023-09-12T05:58:32;18.30;99.90
16417;DHT22;8317;52.186;5.688;2023-09-12T06:01:02;18.40;99.90
16417;DHT22;8317;52.186;5.688;2023-09-12T06:03:29;18.40;99.90
16417;DHT22;8317;52.186;5.688;2023-09-12T06:05:56;18.40;99.90
16417;DHT22;8317;52.186;5.688;2023-09-12T06:08:23;18.50;99.90
16417;DHT22;8317;52.186;5.688;2023-09-12T06:10:50;18.50;99.90
16417;DHT22;8317;52.186;5.688;2023-09-12T06:13:19;18.50;99.90
16417;DHT22;8317;52.186;5.688;2023-09-12T06:15:46;18.60;99.90
16417;DHT22;8317;52.186;5.688;2023-09-12T06:18:14;18.60;99.90
16417;DHT22;8317;52.186;5.688;2023-09-12T06:20:41;18.60;99.90
16417;DHT22;8317;52.186;5.688;2023-09-12T06:23:09;18.60;99.90
16417;DHT22;8317;52.186;5.688;2023-09-12T06:25:36;18.70;99.90
16417;DHT22;8317;52.186;5.688;2023-09-12T06:28:03;18.70;99.90
16417;DHT22;8317;52.186;5.688;2023-09-12T06:30:30;18.70;99.90
16417;DHT22;8317;52.186;5.688;2023-09-12T06:32:57;18.80;99.90
16417;DHT22;8317;52.186;5.688;2023-09-12T06:35:25;18.80;99.90
16417;DHT22;8317;52.186;5.688;2023-09-12T06:37:52;18.70;99.90
16417;DHT22;8317;52.186;5.688;2023-09-12T06:40:19;18.70;99.90
16417;DHT22;8317;52.186;5.688;2023-09-12T06:42:46;18.90;99.90
16417;DHT22;8317;52.186;5.688;2023-09-12T06:45:13;18.80;99.90
16417;DHT22;8317;52.186;5.688;2023-09-12T06:47:40;18.80;99.90
16417;DHT22;8317;52.186;5.688;2023-09-12T06:50:07;18.80;99.90
16417;DHT22;8317;52.186;5.688;2023-09-12T06:52:36;18.80;99.90
16417;DHT22;8317;52.186;5.688;2023-09-12T06:55:03;18.80;99.90
16417;DHT22;8317;52.186;5.688;2023-09-12T06:57:30;18.80;99.90
16417;DHT22;8317;52.186;5.688;2023-09-12T06:59:56;18.80;99.90
16417;DHT22;8317;52.186;5.688;2023-09-12T07:02:23;18.90;99.90
16417;DHT22;8317;52.186;5.688;2023-09-12T07:04:50;18.90;99.90
16417;DHT22;8317;52.186;5.688;2023-09-12T07:07:17;18.90;99.90
16417;DHT22;8317;52.186;5.688;2023-09-12T07:09:47;19.00;99.90
16417;DHT22;8317;52.186;5.688;2023-09-12T07:12:14;19.00;99.90
16417;DHT22;8317;52.186;5.688;2023-09-12T07:14:41;19.10;99.90
16417;DHT22;8317;52.186;5.688;2023-09-12T07:17:08;19.10;99.90
16417;DHT22;8317;52.186;5.688;2023-09-12T07:19:35;19.20;99.90
16417;DHT22;8317;52.186;5.688;2023-09-12T07:22:02;19.30;99.90
16417;DHT22;8317;52.186;5.688;2023-09-12T07:24:29;19.40;99.90
16417;DHT22;8317;52.186;5.688;2023-09-12T07:26:57;19.40;99.90
16417;DHT22;8317;52.186;5.688;2023-09-12T07:29:24;19.50;99.90
16417;DHT22;8317;52.186;5.688;2023-09-12T07:31:52;19.50;99.90
16417;DHT22;8317;52.186;5.688;2023-09-12T07:34:19;19.50;99.90
16417;DHT22;8317;52.186;5.688;2023-09-12T07:36:46;19.50;99.90
16417;DHT22;8317;52.186;5.688;2023-09-12T07:39:13;19.50;99.90
16417;DHT22;8317;52.186;5.688;2023-09-12T07:41:40;19.50;99.90
16417;DHT22;8317;52.186;5.688;2023-09-12T07:44:08;19.60;99.90
16417;DHT22;8317;52.186;5.688;2023-09-12T07:46:37;19.60;99.90
16417;DHT22;8317;52.186;5.688;2023-09-12T07:49:03;19.60;99.90
16417;DHT22;8317;52.186;5.688;2023-09-12T07:51:30;19.60;99.90
16417;DHT22;8317;52.186;5.688;2023-09-12T07:53:57;19.70;99.90
16417;DHT22;8317;52.186;5.688;2023-09-12T07:56:24;19.70;99.90
16417;DHT22;8317;52.186;5.688;2023-09-12T07:58:51;19.80;99.90
16417;DHT22;8317;52.186;5.688;2023-09-12T08:01:19;19.80;99.90
16417;DHT22;8317;52.186;5.688;2023-09-12T08:03:46;19.80;99.90
16417;DHT22;8317;52.186;5.688;2023-09-12T08:06:13;19.80;99.90
16417;DHT22;8317;52.186;5.688;2023-09-12T08:08:40;19.80;99.90
16417;DHT22;8317;52.186;5.688;2023-09-12T08:11:07;19.90;99.90
16417;DHT22;8317;52.186;5.688;2023-09-12T08:13:34;20.00;99.90
16417;DHT22;8317;52.186;5.688;2023-09-12T08:16:00;20.20;99.90
16417;DHT22;8317;52.186;5.688;2023-09-12T08:18:30;20.60;99.90
16417;DHT22;8317;52.186;5.688;2023-09-12T08:20:57;20.80;99.90
16417;DHT22;8317;52.186;5.688;2023-09-12T08:23:24;21.10;99.90
16417;DHT22;8317;52.186;5.688;2023-09-12T08:25:51;21.30;99.90
16417;DHT22;8317;52.186;5.688;2023-09-12T08:28:18;21.70;99.90
16417;DHT22;8317;52.186;5.688;2023-09-12T08:30:45;21.70;99.90
16417;DHT22;8317;52.186;5.688;2023-09-12T08:33:12;21.80;99.90
16417;DHT22;8317;52.186;5.688;2023-09-12T08:35:40;21.90;99.90
16417;DHT22;8317;52.186;5.688;2023-09-12T08:38:07;22.00;99.90
16417;DHT22;8317;52.186;5.688;2023-09-12T08:40:35;22.20;99.90
16417;DHT22;8317;52.186;5.688;2023-09-12T08:43:02;22.50;99.90
16417;DHT22;8317;52.186;5.688;2023-09-12T08:45:30;22.80;99.90
16417;DHT22;8317;52.186;5.688;2023-09-12T08:47:59;22.90;99.90
16417;DHT22;8317;52.186;5.688;2023-09-12T08:50:26;23.00;99.90
16417;DHT22;8317;52.186;5.688;2023-09-12T08:52:58;23.50;99.90
16417;DHT22;8317;52.186;5.688;2023-09-12T08:55:25;23.50;99.90
16417;DHT22;8317;52.186;5.688;2023-09-12T08:57:53;23.70;99.90
16417;DHT22;8317;52.186;5.688;2023-09-12T09:00:23;23.80;99.90
16417;DHT22;8317;52.186;5.688;2023-09-12T09:02:50;23.70;99.90
16417;DHT22;8317;52.186;5.688;2023-09-12T09:05:18;23.90;99.90
16417;DHT22;8317;52.186;5.688;2023-09-12T09:07:45;24.00;99.90
16417;DHT22;8317;52.186;5.688;2023-09-12T09:10:16;24.20;99.90
16417;DHT22;8317;52.186;5.688;2023-09-12T09:12:44;24.40;99.90
16417;DHT22;8317;52.186;5.688;2023-09-12T09:15:21;24.60;99.90
16417;DHT22;8317;52.186;5.688;2023-09-12T09:17:49;24.60;99.90
16417;DHT22;8317;52.186;5.688;2023-09-12T09:20:26;24.80;99.90
16417;DHT22;8317;52.186;5.688;2023-09-12T09:22:57;24.80;99.90
16417;DHT22;8317;52.186;5.688;2023-09-12T09:25:26;24.90;99.90
16417;DHT22;8317;52.186;5.688;2023-09-12T09:27:53;25.30;99.90
16417;DHT22;8317;52.186;5.688;2023-09-12T09:30:39;25.60;99.90
16417;DHT22;8317;52.186;5.688;2023-09-12T09:33:07;25.80;99.90
16417;DHT22;8317;52.186;5.688;2023-09-12T09:35:34;25.70;99.90
16417;DHT22;8317;52.186;5.688;2023-09-12T09:38:02;25.80;99.90
16417;DHT22;8317;52.186;5.688;2023-09-12T09:40:32;25.70;99.90
16417;DHT22;8317;52.186;5.688;2023-09-12T09:42:59;25.80;99.90
16417;DHT22;8317;52.186;5.688;2023-09-12T09:45:27;25.70;99.90
16417;DHT22;8317;52.186;5.688;2023-09-12T09:47:57;25.60;99.90
16417;DHT22;8317;52.186;5.688;2023-09-12T09:50:25;26.00;99.90
16417;DHT22;8317;52.186;5.688;2023-09-12T09:52:54;26.20;99.90
16417;DHT22;8317;52.186;5.688;2023-09-12T09:55:21;26.40;99.90
16417;DHT22;8317;52.186;5.688;2023-09-12T09:57:50;26.70;99.90
16417;DHT22;8317;52.186;5.688;2023-09-12T10:00:19;26.60;99.90
16417;DHT22;8317;52.186;5.688;2023-09-12T10:02:47;26.80;99.90
16417;DHT22;8317;52.186;5.688;2023-09-12T10:05:16;26.60;99.90
16417;DHT22;8317;52.186;5.688;2023-09-12T10:07:46;26.90;99.90
16417;DHT22;8317;52.186;5.688;2023-09-12T10:10:14;26.60;99.90
16417;DHT22;8317;52.186;5.688;2023-09-12T10:12:45;26.50;99.90
16417;DHT22;8317;52.186;5.688;2023-09-12T10:15:18;26.90;99.90
16417;DHT22;8317;52.186;5.688;2023-09-12T10:17:50;26.40;99.90
16417;DHT22;8317;52.186;5.688;2023-09-12T10:20:21;26.70;99.90
16417;DHT22;8317;52.186;5.688;2023-09-12T10:22:54;26.70;99.90
16417;DHT22;8317;52.186;5.688;2023-09-12T10:25:23;26.50;99.90
16417;DHT22;8317;52.186;5.688;2023-09-12T10:27:51;26.60;99.90
16417;DHT22;8317;52.186;5.688;2023-09-12T10:30:21;26.70;99.90
16417;DHT22;8317;52.186;5.688;2023-09-12T10:32:48;26.60;99.90
16417;DHT22;8317;52.186;5.688;2023-09-12T10:35:16;25.90;99.90
16417;DHT22;8317;52.186;5.688;2023-09-12T10:37:45;25.70;99.90
16417;DHT22;8317;52.186;5.688;2023-09-12T10:40:13;25.50;99.90
16417;DHT22;8317;52.186;5.688;2023-09-12T10:42:42;25.30;99.90
16417;DHT22;8317;52.186;5.688;2023-09-12T10:45:11;25.10;99.90
16417;DHT22;8317;52.186;5.688;2023-09-12T10:47:40;25.00;99.90
16417;DHT22;8317;52.186;5.688;2023-09-12T10:50:07;25.10;99.90
16417;DHT22;8317;52.186;5.688;2023-09-12T10:52:34;25.30;99.90
16417;DHT22;8317;52.186;5.688;2023-09-12T10:55:06;25.20;99.90
16417;DHT22;8317;52.186;5.688;2023-09-12T10:57:33;24.90;99.90
16417;DHT22;8317;52.186;5.688;2023-09-12T11:00:13;24.70;99.90
16417;DHT22;8317;52.186;5.688;2023-09-12T11:02:42;24.60;99.90
16417;DHT22;8317;52.186;5.688;2023-09-12T11:05:36;24.60;99.90
16417;DHT22;8317;52.186;5.688;2023-09-12T11:08:03;24.40;99.90
16417;DHT22;8317;52.186;5.688;2023-09-12T11:10:30;24.60;99.90
16417;DHT22;8317;52.186;5.688;2023-09-12T11:12:58;24.80;99.90
16417;DHT22;8317;52.186;5.688;2023-09-12T11:15:26;25.00;99.90
16417;DHT22;8317;52.186;5.688;2023-09-12T11:18:03;25.30;99.90
16417;DHT22;8317;52.186;5.688;2023-09-12T11:20:49;25.10;99.90
16417;DHT22;8317;52.186;5.688;2023-09-12T11:23:18;24.80;99.90
16417;DHT22;8317;52.186;5.688;2023-09-12T11:25:45;24.70;99.90
16417;DHT22;8317;52.186;5.688;2023-09-12T11:28:12;24.80;99.90
16417;DHT22;8317;52.186;5.688;2023-09-12T11:30:55;25.10;99.90
16417;DHT22;8317;52.186;5.688;2023-09-12T11:33:24;25.50;99.90
16417;DHT22;8317;52.186;5.688;2023-09-12T11:35:53;26.10;99.90
16417;DHT22;8317;52.186;5.688;2023-09-12T11:38:27;25.90;99.90
16417;DHT22;8317;52.186;5.688;2023-09-12T11:40:55;26.10;99.90
16417;DHT22;8317;52.186;5.688;2023-09-12T11:43:24;26.60;99.90
16417;DHT22;8317;52.186;5.688;2023-09-12T11:45:51;26.90;99.90
16417;DHT22;8317;52.186;5.688;2023-09-12T11:48:18;27.30;99.90
16417;DHT22;8317;52.186;5.688;2023-09-12T11:50:53;27.60;99.90
16417;DHT22;8317;52.186;5.688;2023-09-12T11:53:21;27.60;99.90
16417;DHT22;8317;52.186;5.688;2023-09-12T11:55:53;27.50;99.90
16417;DHT22;8317;52.186;5.688;2023-09-12T11:58:20;27.50;99.90
16417;DHT22;8317;52.186;5.688;2023-09-12T12:00:49;27.30;99.90
16417;DHT22;8317;52.186;5.688;2023-09-12T12:03:17;26.70;99.90
16417;DHT22;8317;52.186;5.688;2023-09-12T12:05:45;26.60;99.90
16417;DHT22;8317;52.186;5.688;2023-09-12T12:08:14;26.70;99.90
16417;DHT22;8317;52.186;5.688;2023-09-12T12:10:42;26.60;99.90
16417;DHT22;8317;52.186;5.688;2023-09-12T12:13:11;26.50;99.90
16417;DHT22;8317;52.186;5.688;2023-09-12T12:15:38;26.40;99.90
16417;DHT22;8317;52.186;5.688;2023-09-12T12:18:05;26.50;99.90
16417;DHT22;8317;52.186;5.688;2023-09-12T12:20:32;26.30;99.90
16417;DHT22;8317;52.186;5.688;2023-09-12T12:22:59;26.40;99.90
16417;DHT22;8317;52.186;5.688;2023-09-12T12:25:32;26.40;99.90
16417;DHT22;8317;52.186;5.688;2023-09-12T12:27:59;26.90;99.90
16417;DHT22;8317;52.186;5.688;2023-09-12T12:30:30;26.80;99.90
16417;DHT22;8317;52.186;5.688;2023-09-12T12:33:00;26.90;99.90
16417;DHT22;8317;52.186;5.688;2023-09-12T12:35:27;26.90;99.90
16417;DHT22;8317;52.186;5.688;2023-09-12T12:37:56;27.20;99.90
16417;DHT22;8317;52.186;5.688;2023-09-12T12:40:23;27.60;99.90
16417;DHT22;8317;52.186;5.688;2023-09-12T12:42:52;27.60;99.90
16417;DHT22;8317;52.186;5.688;2023-09-12T12:45:20;27.50;99.90
16417;DHT22;8317;52.186;5.688;2023-09-12T12:47:51;27.70;99.90
16417;DHT22;8317;52.186;5.688;2023-09-12T12:50:18;27.90;99.90
16417;DHT22;8317;52.186;5.688;2023-09-12T12:52:47;28.30;99.90
16417;DHT22;8317;52.186;5.688;2023-09-12T12:55:15;28.40;99.90
16417;DHT22;8317;52.186;5.688;2023-09-12T12:57:43;28.20;99.90
16417;DHT22;8317;52.186;5.688;2023-09-12T13:00:13;28.40;99.90
16417;DHT22;8317;52.186;5.688;2023-09-12T13:02:41;28.00;99.90
16417;DHT22;8317;52.186;5.688;2023-09-12T13:05:20;28.10;99.90
16417;DHT22;8317;52.186;5.688;2023-09-12T13:07:47;28.30;99.90
16417;DHT22;8317;52.186;5.688;2023-09-12T13:10:14;28.60;99.90
16417;DHT22;8317;52.186;5.688;2023-09-12T13:12:41;28.70;99.90
16417;DHT22;8317;52.186;5.688;2023-09-12T13:15:12;28.00;99.90
16417;DHT22;8317;52.186;5.688;2023-09-12T13:17:40;27.80;99.90
16417;DHT22;8317;52.186;5.688;2023-09-12T13:20:08;27.90;99.90
16417;DHT22;8317;52.186;5.688;2023-09-12T13:22:36;27.90;99.90
16417;DHT22;8317;52.186;5.688;2023-09-12T13:25:04;27.90;99.90
16417;DHT22;8317;52.186;5.688;2023-09-12T13:27:33;27.70;99.90
16417;DHT22;8317;52.186;5.688;2023-09-12T13:30:00;27.40;99.90
16417;DHT22;8317;52.186;5.688;2023-09-12T13:32:28;27.30;99.90
16417;DHT22;8317;52.186;5.688;2023-09-12T13:34:55;27.10;99.90
16417;DHT22;8317;52.186;5.688;2023-09-12T13:37:22;26.80;99.90
16417;DHT22;8317;52.186;5.688;2023-09-12T13:39:49;26.60;99.90
16417;DHT22;8317;52.186;5.688;2023-09-12T13:42:16;26.60;99.90
16417;DHT22;8317;52.186;5.688;2023-09-12T13:44:45;26.40;99.90
16417;DHT22;8317;52.186;5.688;2023-09-12T13:47:12;26.40;99.90
16417;DHT22;8317;52.186;5.688;2023-09-12T13:49:40;26.30;99.90
16417;DHT22;8317;52.186;5.688;2023-09-12T13:52:07;26.10;99.90
16417;DHT22;8317;52.186;5.688;2023-09-12T13:54:34;26.00;99.90
16417;DHT22;8317;52.186;5.688;2023-09-12T13:57:01;25.80;99.90
16417;DHT22;8317;52.186;5.688;2023-09-12T13:59:28;25.70;99.90
16417;DHT22;8317;52.186;5.688;2023-09-12T14:01:55;25.60;99.90
16417;DHT22;8317;52.186;5.688;2023-09-12T14:04:22;25.60;99.90
16417;DHT22;8317;52.186;5.688;2023-09-12T14:06:50;25.40;99.90
16417;DHT22;8317;52.186;5.688;2023-09-12T14:09:17;25.30;99.90
16417;DHT22;8317;52.186;5.688;2023-09-12T14:11:44;25.00;99.90
16417;DHT22;8317;52.186;5.688;2023-09-12T14:14:12;25.00;99.90
16417;DHT22;8317;52.186;5.688;2023-09-12T14:16:39;24.90;99.90
16417;DHT22;8317;52.186;5.688;2023-09-12T14:19:06;24.70;99.90
16417;DHT22;8317;52.186;5.688;2023-09-12T14:21:33;24.80;99.90
16417;DHT22;8317;52.186;5.688;2023-09-12T14:24:01;25.00;99.90
16417;DHT22;8317;52.186;5.688;2023-09-12T14:26:28;25.30;99.90
16417;DHT22;8317;52.186;5.688;2023-09-12T14:28:55;25.60;99.90
16417;DHT22;8317;52.186;5.688;2023-09-12T14:31:22;25.70;99.90
16417;DHT22;8317;52.186;5.688;2023-09-12T14:33:49;25.90;99.90
16417;DHT22;8317;52.186;5.688;2023-09-12T14:36:17;26.10;99.90
16417;DHT22;8317;52.186;5.688;2023-09-12T14:38:44;25.90;99.90
16417;DHT22;8317;52.186;5.688;2023-09-12T14:41:13;25.60;99.90
16417;DHT22;8317;52.186;5.688;2023-09-12T14:43:40;25.60;99.90
16417;DHT22;8317;52.186;5.688;2023-09-12T14:46:07;25.40;99.90
16417;DHT22;8317;52.186;5.688;2023-09-12T14:48:34;25.60;99.90
16417;DHT22;8317;52.186;5.688;2023-09-12T14:51:01;25.60;99.90
16417;DHT22;8317;52.186;5.688;2023-09-12T14:53:29;25.50;99.90
16417;DHT22;8317;52.186;5.688;2023-09-12T14:55:57;25.30;99.90
16417;DHT22;8317;52.186;5.688;2023-09-12T14:58:25;25.20;99.90
16417;DHT22;8317;52.186;5.688;2023-09-12T15:00:54;25.20;99.90
16417;DHT22;8317;52.186;5.688;2023-09-12T15:03:20;25.00;99.90
16417;DHT22;8317;52.186;5.688;2023-09-12T15:05:47;25.20;99.90
16417;DHT22;8317;52.186;5.688;2023-09-12T15:08:14;25.30;99.90
16417;DHT22;8317;52.186;5.688;2023-09-12T15:10:41;25.50;99.90
16417;DHT22;8317;52.186;5.688;2023-09-12T15:13:08;25.40;99.90
16417;DHT22;8317;52.186;5.688;2023-09-12T15:15:38;25.20;99.90
16417;DHT22;8317;52.186;5.688;2023-09-12T15:18:06;25.20;99.90
16417;DHT22;8317;52.186;5.688;2023-09-12T15:20:33;25.20;99.90
16417;DHT22;8317;52.186;5.688;2023-09-12T15:23:00;25.30;99.90
16417;DHT22;8317;52.186;5.688;2023-09-12T15:25:27;25.30;99.90
16417;DHT22;8317;52.186;5.688;2023-09-12T15:27:54;25.10;99.90
16417;DHT22;8317;52.186;5.688;2023-09-12T15:30:21;25.10;99.90
16417;DHT22;8317;52.186;5.688;2023-09-12T15:32:49;25.10;99.90
16417;DHT22;8317;52.186;5.688;2023-09-12T15:35:16;25.00;99.90
16417;DHT22;8317;52.186;5.688;2023-09-12T15:37:43;25.00;99.90
16417;DHT22;8317;52.186;5.688;2023-09-12T15:40:10;24.80;99.90
16417;DHT22;8317;52.186;5.688;2023-09-12T15:42:37;24.80;99.90
16417;DHT22;8317;52.186;5.688;2023-09-12T15:45:05;24.80;99.90
16417;DHT22;8317;52.186;5.688;2023-09-12T15:47:34;24.80;99.90
16417;DHT22;8317;52.186;5.688;2023-09-12T15:50:02;24.80;99.90